createdAt,value
2018-03-25T00:00:04.620Z,7.79
2018-03-25T00:01:04.776Z,7.80
2018-03-25T00:02:04.920Z,8.00
2018-03-25T00:03:05.068Z,7.93
2018-03-25T00:04:05.222Z,8.03
2018-03-25T00:05:05.372Z,7.88
2018-03-25T00:06:05.523Z,7.18
2018-03-25T00:07:05.677Z,6.87
2018-03-25T00:08:05.821Z,6.27
2018-03-25T00:09:05.969Z,5.97
2018-03-25T00:10:06.365Z,5.44
2018-03-25T00:11:06.269Z,5.02
2018-03-25T00:12:06.419Z,4.59
2018-03-25T00:13:06.583Z,4.73
2018-03-25T00:14:06.718Z,4.66
2018-03-25T00:15:06.868Z,4.52
2018-03-25T00:16:07.023Z,4.38
2018-03-25T00:17:07.170Z,4.31
2018-03-25T00:18:07.319Z,4.37
2018-03-25T00:19:07.469Z,4.50
2018-03-25T00:20:07.616Z,4.22
2018-03-25T00:21:07.776Z,4.35
2018-03-25T00:22:07.928Z,4.26
2018-03-25T00:23:08.082Z,4.02
2018-03-25T00:24:08.243Z,3.99
2018-03-25T00:26:08.523Z,3.62
2018-03-25T00:27:08.672Z,3.47
2018-03-25T00:28:08.824Z,3.31
2018-03-25T00:29:08.968Z,3.28
2018-03-25T00:30:09.121Z,3.08
2018-03-25T00:31:09.279Z,2.90
2018-03-25T00:32:09.420Z,2.80
2018-03-25T00:33:09.597Z,2.80
2018-03-25T00:34:09.738Z,2.75
2018-03-25T00:35:09.909Z,2.74
2018-03-25T00:36:10.051Z,2.60
2018-03-25T00:37:10.205Z,2.54
2018-03-25T00:38:10.350Z,2.50
2018-03-25T00:39:10.494Z,2.51
2018-03-25T00:40:10.649Z,2.49
2018-03-25T00:41:10.804Z,2.50
2018-03-25T00:42:10.944Z,2.46
2018-03-25T00:43:11.100Z,2.49
2018-03-25T00:44:11.243Z,2.46
2018-03-25T00:45:11.390Z,2.44
2018-03-25T00:46:11.538Z,2.54
2018-03-25T00:47:11.691Z,2.54
2018-03-25T00:48:11.836Z,2.51
2018-03-25T00:49:11.993Z,2.51
2018-03-25T00:50:12.384Z,2.54
2018-03-25T00:51:12.308Z,2.51
2018-03-25T00:52:12.454Z,2.43
2018-03-25T00:53:12.604Z,2.53
2018-03-25T00:54:12.745Z,2.56
2018-03-25T00:55:12.894Z,2.50
2018-03-25T00:56:13.045Z,2.47
2018-03-25T00:57:13.192Z,2.38
2018-03-25T00:58:13.344Z,2.35
2018-03-25T00:59:13.506Z,2.38
2018-03-25T01:00:13.639Z,2.36
2018-03-25T01:01:13.787Z,2.32
2018-03-25T01:03:14.080Z,2.24
2018-03-25T01:04:14.228Z,2.13
2018-03-25T01:06:14.524Z,2.15
2018-03-25T01:07:14.671Z,2.18
2018-03-25T01:08:14.838Z,1.89
2018-03-25T01:09:14.975Z,1.95
2018-03-25T01:10:15.110Z,1.87
2018-03-25T01:11:15.263Z,1.84
2018-03-25T01:12:15.411Z,1.77
2018-03-25T01:13:15.565Z,1.85
2018-03-25T01:14:15.712Z,1.85
2018-03-25T01:15:15.861Z,1.70
2018-03-25T01:16:16.008Z,1.76
2018-03-25T01:17:16.158Z,1.63
2018-03-25T01:18:16.309Z,1.56
2018-03-25T01:19:16.451Z,1.58
2018-03-25T01:20:16.599Z,1.59
2018-03-25T01:21:16.743Z,1.49
2018-03-25T01:22:16.902Z,1.44
2018-03-25T01:23:17.034Z,1.42
2018-03-25T01:24:17.175Z,1.52
2018-03-25T01:25:17.322Z,1.41
2018-03-25T01:26:17.467Z,1.59
2018-03-25T01:27:17.620Z,1.49
2018-03-25T01:28:17.755Z,1.60
2018-03-25T01:29:17.906Z,1.58
2018-03-25T01:30:18.052Z,1.56
2018-03-25T01:31:18.202Z,1.68
2018-03-25T01:32:18.331Z,1.50
2018-03-25T01:33:18.499Z,1.55
2018-03-25T01:34:18.645Z,1.49
2018-03-25T01:35:18.793Z,1.37
2018-03-25T01:36:18.935Z,1.44
2018-03-25T01:37:19.093Z,1.44
2018-03-25T01:38:19.237Z,1.50
2018-03-25T01:39:19.383Z,1.49
2018-03-25T01:40:19.529Z,1.45
2018-03-25T01:41:19.687Z,1.52
2018-03-25T01:42:19.847Z,1.53
2018-03-25T01:43:19.977Z,1.50
2018-03-25T01:44:20.130Z,1.49
2018-03-25T01:45:20.276Z,1.44
2018-03-25T01:46:20.429Z,1.52
2018-03-25T01:47:20.569Z,1.49
2018-03-25T01:48:20.713Z,1.50
2018-03-25T01:49:20.863Z,1.44
2018-03-25T01:50:21.010Z,1.49
2018-03-25T01:51:21.157Z,1.44
2018-03-25T01:52:21.306Z,1.62
2018-03-25T01:53:21.456Z,1.49
2018-03-25T01:54:21.614Z,1.55
2018-03-25T01:55:21.753Z,1.59
2018-03-25T01:56:21.899Z,1.53
2018-03-25T01:57:22.408Z,1.40
2018-03-25T01:58:22.195Z,1.37
2018-03-25T01:59:22.341Z,1.38
2018-03-25T02:00:22.497Z,1.34
2018-03-25T02:01:22.640Z,1.34
2018-03-25T02:02:22.787Z,1.23
2018-03-25T02:03:22.932Z,1.26
2018-03-25T02:04:23.083Z,1.28
2018-03-25T02:05:23.231Z,1.23
2018-03-25T02:06:23.372Z,1.35
2018-03-25T02:07:23.525Z,1.24
2018-03-25T02:08:23.669Z,1.16
2018-03-25T02:09:23.821Z,1.17
2018-03-25T02:10:23.964Z,1.23
2018-03-25T02:11:24.109Z,1.17
2018-03-25T02:13:24.401Z,1.32
2018-03-25T02:14:24.545Z,1.31
2018-03-25T02:15:24.695Z,1.24
2018-03-25T02:16:24.840Z,1.31
2018-03-25T02:17:24.989Z,1.32
2018-03-25T02:18:25.145Z,1.35
2018-03-25T02:19:25.298Z,1.35
2018-03-25T02:20:25.436Z,1.38
2018-03-25T02:21:25.582Z,1.32
2018-03-25T02:22:25.731Z,1.45
2018-03-25T02:23:25.875Z,1.28
2018-03-25T02:24:26.041Z,1.37
2018-03-25T02:25:26.167Z,1.24
2018-03-25T02:26:26.312Z,1.32
2018-03-25T02:27:26.456Z,1.35
2018-03-25T02:28:26.604Z,1.32
2018-03-25T02:29:26.757Z,1.24
2018-03-25T02:30:26.894Z,1.24
2018-03-25T02:31:27.043Z,1.28
2018-03-25T02:32:27.197Z,1.30
2018-03-25T02:33:27.342Z,1.28
2018-03-25T02:34:27.489Z,1.31
2018-03-25T02:35:27.629Z,1.30
2018-03-25T02:36:27.776Z,1.24
2018-03-25T02:37:27.923Z,1.17
2018-03-25T02:38:28.073Z,1.30
2018-03-25T02:39:28.248Z,1.20
2018-03-25T02:40:28.378Z,1.20
2018-03-25T02:41:28.519Z,1.17
2018-03-25T02:42:28.665Z,1.13
2018-03-25T02:43:28.812Z,0.99
2018-03-25T02:44:28.957Z,1.02
2018-03-25T02:45:29.109Z,0.88
2018-03-25T02:46:29.259Z,0.95
2018-03-25T02:47:29.401Z,0.83
2018-03-25T02:48:29.549Z,0.94
2018-03-25T02:49:29.707Z,0.88
2018-03-25T02:50:29.846Z,0.94
2018-03-25T02:51:29.998Z,0.95
2018-03-25T02:52:30.140Z,1.01
2018-03-25T02:53:30.291Z,1.10
2018-03-25T02:54:30.428Z,1.04
2018-03-25T02:55:30.569Z,0.92
2018-03-25T02:56:30.716Z,0.88
2018-03-25T02:57:30.861Z,1.01
2018-03-25T02:58:31.008Z,0.92
2018-03-25T02:59:31.159Z,0.92
2018-03-25T03:00:31.302Z,0.92
2018-03-25T03:01:31.447Z,0.98
2018-03-25T03:02:31.599Z,1.06
2018-03-25T03:03:31.743Z,1.05
2018-03-25T03:04:31.891Z,1.05
2018-03-25T03:05:32.041Z,1.10
2018-03-25T03:06:32.188Z,0.92
2018-03-25T03:07:32.335Z,0.98
2018-03-25T03:08:32.478Z,0.92
2018-03-25T03:09:32.629Z,0.95
2018-03-25T03:10:32.780Z,0.84
2018-03-25T03:11:32.924Z,0.92
2018-03-25T03:12:33.084Z,1.01
2018-03-25T03:13:33.225Z,0.92
2018-03-25T03:14:33.374Z,0.96
2018-03-25T03:15:33.521Z,1.05
2018-03-25T03:16:33.678Z,1.05
2018-03-25T03:17:33.815Z,1.06
2018-03-25T03:18:33.965Z,1.05
2018-03-25T03:19:34.350Z,1.06
2018-03-25T03:20:34.258Z,1.14
2018-03-25T03:21:34.410Z,0.95
2018-03-25T03:22:34.560Z,1.05
2018-03-25T03:23:34.700Z,0.80
2018-03-25T03:24:34.851Z,0.74
2018-03-25T03:25:34.995Z,0.78
2018-03-25T03:26:35.155Z,0.63
2018-03-25T03:27:35.293Z,0.73
2018-03-25T03:28:35.436Z,0.74
2018-03-25T03:29:35.591Z,0.73
2018-03-25T03:30:35.735Z,0.77
2018-03-25T03:31:35.889Z,0.77
2018-03-25T03:32:36.030Z,0.78
2018-03-25T03:33:36.179Z,0.84
2018-03-25T03:34:36.332Z,0.77
2018-03-25T03:35:36.475Z,0.66
2018-03-25T03:36:36.623Z,0.59
2018-03-25T03:37:36.774Z,0.59
2018-03-25T03:38:36.920Z,0.47
2018-03-25T03:39:37.068Z,0.60
2018-03-25T03:40:37.217Z,0.55
2018-03-25T03:41:37.364Z,0.47
2018-03-25T03:42:37.512Z,0.59
2018-03-25T03:43:37.657Z,0.68
2018-03-25T03:44:37.804Z,0.55
2018-03-25T03:45:37.952Z,0.58
2018-03-25T03:46:38.103Z,0.60
2018-03-25T03:47:38.250Z,0.60
2018-03-25T03:48:38.400Z,0.73
2018-03-25T03:49:38.544Z,0.70
2018-03-25T03:50:38.711Z,0.62
2018-03-25T03:51:38.855Z,0.63
2018-03-25T03:52:39.004Z,0.49
2018-03-25T03:53:39.152Z,0.43
2018-03-25T03:54:39.300Z,0.46
2018-03-25T03:55:39.449Z,0.52
2018-03-25T03:56:39.594Z,0.56
2018-03-25T03:57:39.737Z,0.74
2018-03-25T03:58:39.885Z,0.58
2018-03-25T03:59:40.037Z,0.59
2018-03-25T04:00:40.184Z,0.47
2018-03-25T04:01:40.330Z,0.59
2018-03-25T04:02:40.477Z,0.49
2018-03-25T04:03:40.630Z,0.55
2018-03-25T04:04:40.779Z,0.56
2018-03-25T04:05:40.929Z,0.49
2018-03-25T04:06:41.072Z,0.50
2018-03-25T04:07:41.462Z,0.55
2018-03-25T04:08:41.367Z,0.44
2018-03-25T04:09:41.513Z,0.47
2018-03-25T04:10:41.671Z,0.60
2018-03-25T04:11:41.811Z,0.52
2018-03-25T04:12:41.958Z,0.56
2018-03-25T04:13:42.104Z,0.59
2018-03-25T04:14:42.254Z,0.62
2018-03-25T04:15:42.395Z,0.65
2018-03-25T04:16:42.545Z,0.68
2018-03-25T04:17:42.693Z,0.58
2018-03-25T04:18:42.837Z,0.56
2018-03-25T04:19:42.987Z,0.44
2018-03-25T04:20:43.133Z,0.36
2018-03-25T04:21:43.278Z,0.40
2018-03-25T04:22:43.423Z,0.46
2018-03-25T04:23:43.580Z,0.43
2018-03-25T04:24:43.723Z,0.47
2018-03-25T04:25:43.869Z,0.46
2018-03-25T04:26:44.021Z,0.44
2018-03-25T04:27:44.161Z,0.47
2018-03-25T04:28:44.311Z,0.41
2018-03-25T04:29:44.464Z,0.44
2018-03-25T04:30:44.607Z,0.50
2018-03-25T04:31:44.752Z,0.44
2018-03-25T04:32:44.900Z,0.31
2018-03-25T04:33:45.047Z,0.25
2018-03-25T04:34:45.195Z,0.25
2018-03-25T04:35:45.341Z,0.26
2018-03-25T04:36:45.538Z,0.28
2018-03-25T04:37:45.643Z,0.46
2018-03-25T04:38:45.783Z,0.50
2018-03-25T04:39:45.933Z,0.41
2018-03-25T04:40:46.076Z,0.43
2018-03-25T04:41:46.234Z,0.43
2018-03-25T04:42:46.373Z,0.44
2018-03-25T04:43:46.517Z,0.37
2018-03-25T04:44:46.664Z,0.34
2018-03-25T04:45:46.810Z,0.39
2018-03-25T04:46:46.952Z,0.22
2018-03-25T04:47:47.098Z,0.29
2018-03-25T04:48:47.244Z,0.26
2018-03-25T04:49:47.390Z,0.26
2018-03-25T04:50:47.536Z,0.12
2018-03-25T04:51:47.685Z,0.25
2018-03-25T04:52:47.834Z,0.26
2018-03-25T04:53:48.243Z,0.25
2018-03-25T04:54:48.128Z,0.22
2018-03-25T04:55:48.279Z,0.23
2018-03-25T04:56:48.428Z,0.25
2018-03-25T04:57:48.570Z,0.31
2018-03-25T04:58:48.713Z,0.25
2018-03-25T04:59:48.862Z,0.28
2018-03-25T05:00:49.013Z,0.46
2018-03-25T05:01:49.409Z,0.44
2018-03-25T05:02:49.300Z,0.40
2018-03-25T05:03:49.449Z,0.47
2018-03-25T05:04:49.600Z,0.32
2018-03-25T05:05:49.739Z,0.44
2018-03-25T05:06:49.886Z,0.49
2018-03-25T05:07:50.037Z,0.39
2018-03-25T05:08:50.173Z,0.41
2018-03-25T05:09:50.325Z,0.37
2018-03-25T05:10:50.470Z,0.46
2018-03-25T05:11:50.619Z,0.50
2018-03-25T05:12:50.767Z,0.39
2018-03-25T05:13:50.912Z,0.58
2018-03-25T05:14:51.066Z,0.55
2018-03-25T05:15:51.209Z,0.37
2018-03-25T05:16:51.352Z,0.43
2018-03-25T05:17:51.502Z,0.47
2018-03-25T05:18:51.679Z,0.47
2018-03-25T05:19:51.793Z,0.50
2018-03-25T05:20:51.943Z,0.44
2018-03-25T05:21:52.092Z,0.47
2018-03-25T05:22:52.238Z,0.44
2018-03-25T05:23:52.377Z,0.40
2018-03-25T05:24:52.523Z,0.46
2018-03-25T05:25:52.667Z,0.44
2018-03-25T05:26:52.816Z,0.58
2018-03-25T05:27:52.962Z,0.43
2018-03-25T05:28:53.121Z,0.44
2018-03-25T05:29:53.263Z,0.50
2018-03-25T05:30:53.410Z,0.50
2018-03-25T05:31:53.554Z,0.56
2018-03-25T05:32:53.703Z,0.62
2018-03-25T05:33:53.853Z,0.52
2018-03-25T05:34:53.996Z,0.40
2018-03-25T05:35:54.133Z,0.44
2018-03-25T05:36:54.275Z,0.46
2018-03-25T05:37:54.423Z,0.49
2018-03-25T05:38:54.571Z,0.55
2018-03-25T05:39:54.716Z,0.70
2018-03-25T05:40:54.867Z,0.62
2018-03-25T05:41:55.009Z,0.74
2018-03-25T05:42:55.162Z,0.66
2018-03-25T05:43:55.301Z,0.70
2018-03-25T05:44:55.452Z,0.73
2018-03-25T05:45:55.602Z,0.84
2018-03-25T05:46:55.748Z,0.83
2018-03-25T05:47:55.896Z,0.87
2018-03-25T05:48:56.060Z,1.06
2018-03-25T05:49:56.193Z,1.04
2018-03-25T05:50:56.342Z,0.98
2018-03-25T05:51:56.489Z,0.94
2018-03-25T05:52:56.635Z,0.94
2018-03-25T05:53:56.815Z,1.06
2018-03-25T05:54:56.933Z,1.01
2018-03-25T05:55:57.080Z,1.10
2018-03-25T05:56:57.231Z,1.17
2018-03-25T05:57:57.374Z,1.30
2018-03-25T05:58:57.524Z,1.24
2018-03-25T05:59:57.675Z,1.48
2018-03-25T06:00:57.821Z,1.32
2018-03-25T06:01:57.970Z,1.44
2018-03-25T06:02:58.114Z,1.34
2018-03-25T06:03:58.260Z,1.32
2018-03-25T06:04:58.406Z,1.32
2018-03-25T06:05:58.554Z,1.37
2018-03-25T06:06:58.703Z,1.55
2018-03-25T06:07:58.856Z,1.63
2018-03-25T06:08:58.993Z,1.66
2018-03-25T06:09:59.141Z,1.60
2018-03-25T06:10:59.293Z,1.56
2018-03-25T06:11:59.441Z,1.58
2018-03-25T06:12:59.589Z,1.78
2018-03-25T06:13:59.737Z,1.88
2018-03-25T06:14:59.893Z,1.85
2018-03-25T06:16:00.137Z,1.85
2018-03-25T06:17:00.181Z,1.85
2018-03-25T06:18:00.330Z,1.92
2018-03-25T06:19:00.485Z,1.89
2018-03-25T06:20:00.633Z,1.97
2018-03-25T06:21:00.776Z,2.04
2018-03-25T06:22:00.926Z,2.14
2018-03-25T06:23:01.054Z,1.94
2018-03-25T06:24:01.204Z,1.91
2018-03-25T06:25:01.351Z,1.84
2018-03-25T06:26:01.505Z,1.70
2018-03-25T06:27:01.654Z,1.59
2018-03-25T06:28:01.805Z,1.66
2018-03-25T06:29:02.015Z,1.68
2018-03-25T06:30:02.096Z,1.84
2018-03-25T06:31:02.245Z,1.88
2018-03-25T06:32:02.426Z,1.78
2018-03-25T06:33:02.542Z,1.87
2018-03-25T06:34:02.685Z,1.87
2018-03-25T06:35:02.831Z,1.84
2018-03-25T06:36:02.980Z,1.97
2018-03-25T06:37:03.122Z,2.15
2018-03-25T06:38:03.331Z,2.24
2018-03-25T06:39:03.422Z,2.28
2018-03-25T06:40:03.569Z,2.49
2018-03-25T06:41:03.716Z,2.53
2018-03-25T06:42:03.866Z,2.61
2018-03-25T06:43:04.015Z,2.65
2018-03-25T06:44:04.165Z,2.74
2018-03-25T06:45:04.318Z,2.74
2018-03-25T06:46:04.462Z,2.92
2018-03-25T06:47:04.610Z,3.01
2018-03-25T06:48:04.765Z,2.98
2018-03-25T06:49:04.916Z,3.19
2018-03-25T06:50:05.067Z,3.11
2018-03-25T06:51:05.211Z,3.13
2018-03-25T06:52:05.361Z,3.28
2018-03-25T06:53:05.517Z,3.32
2018-03-25T06:54:05.652Z,3.26
2018-03-25T06:55:05.801Z,3.25
2018-03-25T06:56:06.198Z,3.45
2018-03-25T06:57:06.099Z,3.37
2018-03-25T06:58:06.251Z,3.53
2018-03-25T06:59:06.405Z,3.51
2018-03-25T07:00:06.555Z,3.55
2018-03-25T07:01:06.702Z,3.50
2018-03-25T07:02:06.857Z,3.58
2018-03-25T07:03:07.006Z,3.62
2018-03-25T07:04:07.157Z,3.65
2018-03-25T07:05:07.307Z,3.58
2018-03-25T07:06:07.456Z,3.66
2018-03-25T07:07:07.604Z,3.70
2018-03-25T07:08:07.755Z,3.73
2018-03-25T07:09:07.905Z,3.73
2018-03-25T07:10:08.053Z,3.83
2018-03-25T07:11:08.248Z,3.88
2018-03-25T07:12:08.344Z,3.87
2018-03-25T07:13:08.487Z,3.78
2018-03-25T07:14:08.635Z,3.65
2018-03-25T07:15:08.787Z,3.76
2018-03-25T07:16:08.950Z,3.83
2018-03-25T07:17:09.084Z,4.16
2018-03-25T07:18:09.238Z,4.44
2018-03-25T07:19:09.387Z,4.78
2018-03-25T07:20:09.541Z,4.87
2018-03-25T07:21:09.689Z,5.07
2018-03-25T07:22:09.839Z,5.46
2018-03-25T07:23:09.991Z,5.68
2018-03-25T07:24:10.142Z,6.26
2018-03-25T07:25:10.293Z,6.24
2018-03-25T07:26:10.441Z,6.46
2018-03-25T07:27:10.595Z,6.60
2018-03-25T07:28:10.746Z,6.72
2018-03-25T07:29:10.903Z,6.84
2018-03-25T07:30:11.072Z,7.11
2018-03-25T07:31:11.202Z,7.14
2018-03-25T07:32:11.352Z,7.35
2018-03-25T07:33:11.506Z,7.32
2018-03-25T07:34:11.655Z,7.51
2018-03-25T07:35:11.810Z,7.76
2018-03-25T07:36:11.963Z,8.16
2018-03-25T07:37:12.117Z,8.18
2018-03-25T07:38:12.267Z,8.15
2018-03-25T07:39:12.424Z,8.33
2018-03-25T07:40:12.583Z,8.49
2018-03-25T07:41:12.735Z,8.71
2018-03-25T07:42:12.882Z,8.87
2018-03-25T07:43:13.038Z,9.21
2018-03-25T07:44:13.188Z,9.46
2018-03-25T07:45:13.342Z,9.80
2018-03-25T07:46:13.496Z,10.10
2018-03-25T07:47:13.654Z,10.28
2018-03-25T07:48:13.805Z,10.05
2018-03-25T07:49:13.961Z,9.76
2018-03-25T07:50:14.109Z,9.66
2018-03-25T07:51:14.262Z,9.62
2018-03-25T07:52:14.418Z,9.64
2018-03-25T07:53:14.594Z,9.82
2018-03-25T07:54:14.760Z,9.73
2018-03-25T07:55:14.920Z,9.58
2018-03-25T07:56:15.072Z,9.64
2018-03-25T07:57:15.222Z,9.89
2018-03-25T07:58:15.380Z,10.04
2018-03-25T07:59:15.534Z,10.34
2018-03-25T08:00:15.691Z,10.35
2018-03-25T08:01:15.847Z,10.13
2018-03-25T08:02:16.001Z,9.83
2018-03-25T08:03:16.154Z,10.10
2018-03-25T08:04:16.549Z,10.10
2018-03-25T08:05:16.464Z,10.04
2018-03-25T08:06:16.623Z,10.34
2018-03-25T08:07:16.782Z,10.72
2018-03-25T08:08:16.918Z,11.25
2018-03-25T08:09:17.079Z,11.29
2018-03-25T08:10:17.230Z,11.14
2018-03-25T08:11:17.384Z,10.59
2018-03-25T08:12:17.536Z,10.33
2018-03-25T08:13:17.692Z,10.10
2018-03-25T08:14:17.847Z,10.02
2018-03-25T08:15:17.995Z,10.17
2018-03-25T08:16:18.177Z,10.38
2018-03-25T08:17:18.317Z,10.19
2018-03-25T08:18:18.473Z,10.20
2018-03-25T08:19:18.627Z,10.05
2018-03-25T08:20:18.784Z,9.92
2018-03-25T08:21:18.929Z,10.22
2018-03-25T08:22:19.085Z,10.78
2018-03-25T08:23:19.242Z,10.72
2018-03-25T08:24:19.394Z,11.05
2018-03-25T08:25:19.553Z,11.10
2018-03-25T08:26:19.706Z,11.36
2018-03-25T08:27:19.860Z,11.37
2018-03-25T08:28:20.014Z,11.37
2018-03-25T08:29:20.167Z,11.37
2018-03-25T08:30:20.321Z,11.15
2018-03-25T08:31:20.485Z,11.27
2018-03-25T08:32:20.648Z,10.89
2018-03-25T08:33:20.801Z,11.17
2018-03-25T08:34:20.951Z,11.37
2018-03-25T08:35:21.113Z,11.50
2018-03-25T08:36:21.265Z,11.73
2018-03-25T08:37:21.416Z,11.95
2018-03-25T08:38:21.573Z,11.87
2018-03-25T08:39:21.728Z,11.87
2018-03-25T08:40:21.881Z,12.24
2018-03-25T08:42:22.184Z,12.75
2018-03-25T08:43:22.341Z,12.62
2018-03-25T08:44:22.495Z,13.16
2018-03-25T08:45:22.649Z,13.20
2018-03-25T08:46:22.803Z,13.19
2018-03-25T08:47:22.957Z,13.37
2018-03-25T08:48:23.112Z,13.54
2018-03-25T08:49:23.271Z,12.87
2018-03-25T08:50:23.425Z,12.85
2018-03-25T08:51:23.584Z,12.86
2018-03-25T08:52:23.736Z,12.54
2018-03-25T08:53:23.884Z,12.42
2018-03-25T08:54:24.038Z,12.73
2018-03-25T08:55:24.191Z,12.64
2018-03-25T08:56:24.348Z,12.60
2018-03-25T08:57:24.500Z,12.47
2018-03-25T08:58:24.655Z,12.61
2018-03-25T08:59:24.810Z,12.78
2018-03-25T09:00:25.028Z,12.85
2018-03-25T09:01:25.125Z,13.01
2018-03-25T09:02:25.279Z,13.25
2018-03-25T09:03:25.436Z,13.12
2018-03-25T09:04:25.613Z,13.31
2018-03-25T09:05:25.749Z,13.20
2018-03-25T09:06:25.908Z,13.67
2018-03-25T09:07:26.058Z,13.38
2018-03-25T09:08:26.213Z,13.05
2018-03-25T09:09:26.619Z,12.72
2018-03-25T09:10:26.521Z,12.83
2018-03-25T09:11:26.673Z,13.04
2018-03-25T09:12:26.831Z,13.30
2018-03-25T09:13:26.986Z,13.11
2018-03-25T09:14:27.126Z,12.83
2018-03-25T09:15:27.281Z,12.67
2018-03-25T09:16:27.436Z,12.42
2018-03-25T09:17:27.602Z,12.35
2018-03-25T09:18:27.748Z,12.46
2018-03-25T09:19:27.906Z,12.37
2018-03-25T09:20:28.063Z,12.06
2018-03-25T09:21:28.215Z,12.15
2018-03-25T09:22:28.370Z,12.15
2018-03-25T09:23:28.532Z,12.17
2018-03-25T09:24:28.680Z,12.12
2018-03-25T09:25:28.844Z,12.20
2018-03-25T09:26:29.002Z,12.37
2018-03-25T09:27:29.147Z,12.53
2018-03-25T09:28:29.305Z,12.49
2018-03-25T09:29:29.459Z,12.70
2018-03-25T09:30:29.621Z,12.90
2018-03-25T09:31:30.004Z,12.73
2018-03-25T09:32:29.924Z,12.55
2018-03-25T09:33:30.085Z,12.75
2018-03-25T09:35:30.388Z,12.91
2018-03-25T09:36:30.538Z,12.60
2018-03-25T09:37:30.691Z,12.55
2018-03-25T09:38:30.845Z,12.70
2018-03-25T09:39:31.003Z,12.61
2018-03-25T09:40:31.159Z,12.61
2018-03-25T09:41:31.309Z,12.76
2018-03-25T09:42:31.470Z,12.73
2018-03-25T09:43:31.638Z,12.62
2018-03-25T09:44:31.788Z,12.75
2018-03-25T09:45:31.936Z,12.57
2018-03-25T09:46:32.092Z,12.65
2018-03-25T09:47:32.253Z,12.78
2018-03-25T09:48:32.399Z,12.85
2018-03-25T09:49:32.553Z,13.01
2018-03-25T09:50:32.706Z,12.85
2018-03-25T09:51:32.866Z,12.64
2018-03-25T09:52:33.020Z,12.55
2018-03-25T09:53:33.185Z,12.67
2018-03-25T09:54:33.337Z,12.76
2018-03-25T09:55:33.498Z,12.98
2018-03-25T09:56:33.897Z,13.01
2018-03-25T09:57:33.808Z,13.09
2018-03-25T09:58:34.031Z,13.15
2018-03-25T10:00:34.293Z,13.18
2018-03-25T10:01:34.429Z,13.31
2018-03-25T10:02:34.578Z,13.27
2018-03-25T10:03:34.732Z,12.91
2018-03-25T10:04:34.912Z,13.08
2018-03-25T10:05:35.044Z,13.01
2018-03-25T10:06:35.190Z,13.08
2018-03-25T10:07:35.358Z,13.04
2018-03-25T10:08:35.497Z,13.09
2018-03-25T10:09:35.657Z,13.12
2018-03-25T10:10:35.813Z,13.22
2018-03-25T10:11:35.972Z,13.35
2018-03-25T10:12:36.121Z,13.57
2018-03-25T10:13:36.271Z,13.60
2018-03-25T10:14:36.432Z,13.75
2018-03-25T10:15:36.598Z,13.75
2018-03-25T10:16:36.738Z,13.54
2018-03-25T10:17:36.888Z,13.59
2018-03-25T10:18:37.046Z,13.62
2018-03-25T10:19:37.202Z,13.39
2018-03-25T10:20:37.356Z,13.28
2018-03-25T10:21:37.513Z,13.20
2018-03-25T10:22:37.699Z,13.20
2018-03-25T10:23:37.818Z,13.16
2018-03-25T10:24:37.976Z,13.30
2018-03-25T10:25:38.145Z,13.35
2018-03-25T10:26:38.291Z,13.22
2018-03-25T10:27:38.442Z,13.28
2018-03-25T10:28:38.590Z,13.42
2018-03-25T10:29:38.760Z,13.49
2018-03-25T10:30:38.911Z,13.57
2018-03-25T10:31:39.068Z,13.62
2018-03-25T10:32:39.221Z,13.59
2018-03-25T10:33:39.376Z,13.49
2018-03-25T10:34:39.535Z,13.44
2018-03-25T10:35:39.691Z,13.35
2018-03-25T10:36:39.847Z,13.23
2018-03-25T10:37:40.010Z,13.46
2018-03-25T10:38:40.162Z,13.60
2018-03-25T10:39:40.314Z,13.63
2018-03-25T10:40:40.476Z,13.65
2018-03-25T10:41:40.634Z,13.65
2018-03-25T10:42:40.786Z,13.71
2018-03-25T10:43:40.938Z,13.81
2018-03-25T10:44:41.104Z,13.78
2018-03-25T10:45:41.253Z,13.90
2018-03-25T10:46:41.414Z,13.95
2018-03-25T10:47:41.559Z,14.10
2018-03-25T10:48:41.722Z,14.10
2018-03-25T10:49:42.117Z,14.14
2018-03-25T10:50:42.030Z,14.11
2018-03-25T10:51:42.192Z,13.67
2018-03-25T10:52:42.348Z,13.57
2018-03-25T10:53:42.502Z,13.62
2018-03-25T10:54:42.653Z,13.62
2018-03-25T10:55:42.813Z,13.39
2018-03-25T10:56:42.961Z,13.44
2018-03-25T10:57:43.116Z,13.46
2018-03-25T10:58:43.275Z,13.50
2018-03-25T10:59:43.429Z,13.37
2018-03-25T11:00:43.892Z,13.46
2018-03-25T11:01:43.737Z,13.42
2018-03-25T11:02:43.891Z,13.31
2018-03-25T11:03:44.059Z,13.22
2018-03-25T11:04:44.270Z,13.30
2018-03-25T11:05:44.357Z,13.42
2018-03-25T11:06:44.514Z,13.50
2018-03-25T11:07:44.674Z,13.46
2018-03-25T11:08:44.834Z,13.53
2018-03-25T11:09:44.989Z,13.57
2018-03-25T11:10:45.140Z,13.54
2018-03-25T11:11:45.353Z,13.44
2018-03-25T11:12:45.455Z,13.49
2018-03-25T11:13:45.608Z,13.39
2018-03-25T11:14:45.766Z,13.35
2018-03-25T11:15:45.922Z,13.23
2018-03-25T11:16:46.078Z,13.18
2018-03-25T11:17:46.234Z,13.22
2018-03-25T11:18:46.381Z,13.25
2018-03-25T11:19:46.537Z,13.47
2018-03-25T11:20:46.692Z,13.63
2018-03-25T11:21:46.853Z,13.77
2018-03-25T11:22:47.014Z,13.93
2018-03-25T11:23:47.159Z,13.97
2018-03-25T11:24:47.315Z,13.93
2018-03-25T11:25:47.474Z,13.87
2018-03-25T11:26:47.633Z,13.90
2018-03-25T11:27:47.791Z,13.92
2018-03-25T11:28:47.941Z,13.78
2018-03-25T11:29:48.099Z,13.79
2018-03-25T11:30:48.251Z,13.74
2018-03-25T11:31:48.405Z,13.75
2018-03-25T11:32:48.560Z,13.78
2018-03-25T11:33:48.719Z,13.78
2018-03-25T11:34:48.880Z,13.78
2018-03-25T11:35:49.037Z,13.92
2018-03-25T11:36:49.191Z,14.08
2018-03-25T11:37:49.349Z,13.96
2018-03-25T11:38:49.514Z,14.14
2018-03-25T11:39:49.668Z,14.15
2018-03-25T11:40:49.820Z,14.28
2018-03-25T11:41:49.974Z,14.32
2018-03-25T11:42:50.137Z,14.43
2018-03-25T11:43:50.282Z,14.43
2018-03-25T11:44:50.440Z,14.44
2018-03-25T11:45:50.592Z,14.41
2018-03-25T11:46:50.754Z,14.51
2018-03-25T11:47:50.920Z,14.37
2018-03-25T11:48:51.066Z,14.33
2018-03-25T11:49:51.214Z,14.15
2018-03-25T11:50:51.368Z,14.11
2018-03-25T11:51:51.536Z,13.95
2018-03-25T11:52:51.693Z,13.87
2018-03-25T11:53:51.845Z,13.79
2018-03-25T11:54:51.998Z,13.96
2018-03-25T11:55:52.158Z,13.90
2018-03-25T11:56:52.312Z,13.93
2018-03-25T11:57:52.470Z,13.92
2018-03-25T11:58:52.632Z,13.92
2018-03-25T11:59:52.778Z,14.17
2018-03-25T12:00:52.934Z,14.32
2018-03-25T12:01:53.093Z,14.32
2018-03-25T12:02:53.257Z,14.45
2018-03-25T12:03:53.404Z,14.48
2018-03-25T12:04:53.562Z,14.47
2018-03-25T12:05:53.716Z,14.32
2018-03-25T12:06:53.928Z,14.33
2018-03-25T12:07:54.452Z,14.28
2018-03-25T12:08:54.182Z,14.17
2018-03-25T12:09:54.349Z,14.29
2018-03-25T12:10:54.504Z,14.35
2018-03-25T12:11:54.653Z,14.44
2018-03-25T12:12:54.818Z,14.43
2018-03-25T12:13:54.968Z,14.29
2018-03-25T12:14:55.165Z,14.36
2018-03-25T12:15:55.277Z,14.14
2018-03-25T12:16:55.430Z,13.89
2018-03-25T12:17:55.585Z,13.92
2018-03-25T12:18:55.766Z,13.74
2018-03-25T12:19:55.892Z,13.79
2018-03-25T12:20:56.050Z,13.95
2018-03-25T12:21:56.206Z,13.92
2018-03-25T12:22:56.360Z,14.07
2018-03-25T12:23:56.530Z,14.26
2018-03-25T12:24:56.673Z,14.40
2018-03-25T12:25:56.832Z,14.69
2018-03-25T12:26:56.984Z,15.51
2018-03-25T12:27:57.139Z,16.71
2018-03-25T12:28:57.295Z,17.22
2018-03-25T12:29:57.460Z,17.44
2018-03-25T12:30:57.609Z,17.27
2018-03-25T12:31:57.764Z,16.71
2018-03-25T12:32:57.934Z,16.47
2018-03-25T12:33:58.077Z,16.10
2018-03-25T12:34:58.239Z,16.09
2018-03-25T12:35:58.402Z,15.91
2018-03-25T12:36:58.555Z,15.64
2018-03-25T12:37:58.709Z,15.17
2018-03-25T12:38:58.875Z,14.72
2018-03-25T12:39:59.027Z,14.33
2018-03-25T12:40:59.176Z,14.36
2018-03-25T12:41:59.333Z,14.17
2018-03-25T12:42:59.472Z,14.20
2018-03-25T12:43:59.625Z,14.23
2018-03-25T12:44:59.790Z,14.40
2018-03-25T12:45:59.938Z,14.60
2018-03-25T12:47:00.097Z,14.72
2018-03-25T12:48:00.248Z,14.69
2018-03-25T12:49:00.414Z,14.69
2018-03-25T12:50:00.565Z,14.70
2018-03-25T12:51:00.712Z,14.69
2018-03-25T12:52:00.871Z,14.63
2018-03-25T12:53:01.023Z,14.70
2018-03-25T12:54:01.181Z,14.53
2018-03-25T12:55:01.394Z,14.70
2018-03-25T12:56:01.489Z,14.88
2018-03-25T12:57:01.645Z,14.82
2018-03-25T12:58:01.803Z,14.82
2018-03-25T12:59:01.955Z,14.88
2018-03-25T13:00:02.111Z,14.81
2018-03-25T13:02:02.425Z,14.82
2018-03-25T13:03:02.584Z,14.59
2018-03-25T13:04:02.738Z,14.82
2018-03-25T13:05:02.896Z,14.91
2018-03-25T13:06:03.053Z,15.03
2018-03-25T13:07:03.202Z,15.07
2018-03-25T13:08:03.358Z,14.99
2018-03-25T13:09:03.512Z,14.96
2018-03-25T13:10:03.668Z,14.84
2018-03-25T13:11:03.824Z,14.91
2018-03-25T13:12:03.980Z,14.99
2018-03-25T13:13:04.139Z,15.04
2018-03-25T13:14:04.294Z,14.91
2018-03-25T13:15:04.454Z,15.19
2018-03-25T13:16:04.614Z,15.21
2018-03-25T13:17:04.766Z,15.22